Time;durP1;ratioP1;P1;durP2;ratioP2;P2;SDS_P1;SDS_P2;PMS_P1;PMS_P2;Temp;Humidity;BMP_temperature;BMP_pressure;BME280_temperature;BME280_humidity;BME280_pressure;Samples;Min_cycle;Max_cycle;Signal;HPM_P1;HPM_P2
2021/10/13 00:02:00;;;;;;;6.03;1.92;;;;;;;;;;5096032;28;20032;-76
2021/10/13 00:04:25;;;;;;;7.53;2.00;;;;;;;;;;5096430;28;20032;-77
2021/10/13 00:06:51;;;;;;;3.85;1.90;;;;;;;;;;5096757;28;20485;-78
2021/10/13 00:09:16;;;;;;;3.42;2.25;;;;;;;;;;5095681;28;20039;-77
2021/10/13 00:11:41;;;;;;;3.60;2.20;;;;;;;;;;5096337;28;20139;-77
2021/10/13 00:14:08;;;;;;;4.03;2.03;;;;;;;;;;5096403;28;20036;-77
2021/10/13 00:16:34;;;;;;;2.63;2.17;;;;;;;;;;5096456;28;20031;-77
2021/10/13 00:19:00;;;;;;;6.55;2.30;;;;;;;;;;5096154;28;20461;-77
2021/10/13 00:21:25;;;;;;;4.72;2.38;;;;;;;;;;5096381;28;20028;-77
2021/10/13 00:23:50;;;;;;;8.93;2.60;;;;;;;;;;5096132;28;20185;-77
2021/10/13 00:26:16;;;;;;;9.25;2.47;;;;;;;;;;5096161;28;20060;-77
2021/10/13 00:28:41;;;;;;;3.85;2.33;;;;;;;;;;5095722;28;20020;-77
2021/10/13 00:31:07;;;;;;;4.68;2.75;;;;;;;;;;5094951;28;20085;-77
2021/10/13 00:33:33;;;;;;;4.20;2.50;;;;;;;;;;5095273;28;20393;-77
2021/10/13 00:35:58;;;;;;;6.40;2.65;;;;;;;;;;5095485;28;20032;-77
2021/10/13 00:38:24;;;;;;;6.15;2.95;;;;;;;;;;5095331;28;20044;-77
2021/10/13 00:40:49;;;;;;;6.18;3.10;;;;;;;;;;5095380;28;20543;-77
2021/10/13 00:43:14;;;;;;;7.50;2.97;;;;;;;;;;5093952;28;20023;-77
2021/10/13 00:45:40;;;;;;;4.47;2.72;;;;;;;;;;5094867;28;20079;-78
2021/10/13 00:48:05;;;;;;;8.02;3.10;;;;;;;;;;5094837;28;20058;-77
2021/10/13 00:50:31;;;;;;;5.43;3.58;;;;;;;;;;5095345;28;20040;-78
2021/10/13 00:52:56;;;;;;;5.95;3.05;;;;;;;;;;5095718;28;20056;-77
2021/10/13 00:55:22;;;;;;;7.53;3.65;;;;;;;;;;5095600;28;20034;-77
2021/10/13 00:57:51;;;;;;;8.25;3.50;;;;;;;;;;5095473;28;20032;-77
2021/10/13 01:00:19;;;;;;;4.90;3.47;;;;;;;;;;5095497;28;20040;-77
2021/10/13 01:03:02;;;;;;;5.07;3.90;;;;;;;;;;5095421;28;20054;-77
2021/10/13 01:06:04;;;;;;;6.07;3.40;;;;;;;;;;5094174;28;20063;-77
2021/10/13 01:08:41;;;;;;;6.03;3.25;;;;;;;;;;5095322;28;20061;-77
2021/10/13 01:11:34;;;;;;;12.73;4.88;;;;;;;;;;5093448;28;20038;-77
2021/10/13 01:14:21;;;;;;;9.73;5.20;;;;;;;;;;5092900;28;20038;-77
2021/10/13 01:16:57;;;;;;;9.95;6.55;;;;;;;;;;5094029;28;20043;-77
2021/10/13 01:19:36;;;;;;;9.38;6.35;;;;;;;;;;5094430;28;20043;-77
2021/10/13 01:22:25;;;;;;;12.55;6.72;;;;;;;;;;5094911;28;20040;-77
2021/10/13 01:25:31;;;;;;;11.25;7.88;;;;;;;;;;5094436;28;20043;-77
2021/10/13 01:28:00;;;;;;;11.32;6.60;;;;;;;;;;5095090;28;20405;-77
2021/10/13 01:30:53;;;;;;;17.77;6.78;;;;;;;;;;5094706;28;20040;-77
2021/10/13 01:33:25;;;;;;;12.02;6.97;;;;;;;;;;5094567;28;20036;-77
2021/10/13 01:35:55;;;;;;;13.18;7.28;;;;;;;;;;5093764;28;20032;-77
2021/10/13 01:38:25;;;;;;;9.88;5.95;;;;;;;;;;5094526;28;20048;-77
2021/10/13 01:40:54;;;;;;;19.88;6.85;;;;;;;;;;5093863;28;20152;-77
2021/10/13 01:43:21;;;;;;;14.60;6.88;;;;;;;;;;5093507;28;20032;-77
2021/10/13 01:45:51;;;;;;;14.70;6.32;;;;;;;;;;5094396;28;20378;-77
2021/10/13 01:48:18;;;;;;;15.15;5.97;;;;;;;;;;5094304;28;20454;-77
2021/10/13 01:50:46;;;;;;;15.77;7.47;;;;;;;;;;5094416;28;20042;-77
2021/10/13 01:53:15;;;;;;;11.32;6.80;;;;;;;;;;5094631;28;20447;-77
2021/10/13 01:55:42;;;;;;;14.52;7.13;;;;;;;;;;5094214;28;20043;-77
2021/10/13 01:58:10;;;;;;;13.73;6.45;;;;;;;;;;5094155;28;20051;-77
2021/10/13 02:00:36;;;;;;;13.65;6.93;;;;;;;;;;5091681;28;20039;-77
2021/10/13 02:03:06;;;;;;;13.27;7.03;;;;;;;;;;5093881;28;20020;-77
2021/10/13 02:05:35;;;;;;;15.20;6.93;;;;;;;;;;5093839;28;20050;-77
2021/10/13 02:08:02;;;;;;;13.13;6.07;;;;;;;;;;5093062;28;20047;-77
2021/10/13 02:10:28;;;;;;;17.02;6.18;;;;;;;;;;5094052;28;20054;-77
2021/10/13 02:12:57;;;;;;;16.27;6.55;;;;;;;;;;5094308;28;20067;-77
2021/10/13 02:15:24;;;;;;;7.80;5.50;;;;;;;;;;5094585;28;20032;-77
2021/10/13 02:17:51;;;;;;;15.10;6.53;;;;;;;;;;5093033;28;20404;-77
2021/10/13 02:20:18;;;;;;;12.57;5.80;;;;;;;;;;5094251;28;20078;-77
2021/10/13 02:22:47;;;;;;;14.27;6.07;;;;;;;;;;5094159;28;20089;-77
2021/10/13 02:25:13;;;;;;;11.93;5.63;;;;;;;;;;5093696;28;20054;-77
2021/10/13 02:27:50;;;;;;;9.18;4.85;;;;;;;;;;5093566;28;20024;-76
2021/10/13 02:30:16;;;;;;;9.70;4.95;;;;;;;;;;5093724;28;20093;-76
2021/10/13 02:32:41;;;;;;;9.30;5.60;;;;;;;;;;5092293;28;20032;-76
2021/10/13 02:35:08;;;;;;;10.10;5.15;;;;;;;;;;5092021;28;20062;-76
2021/10/13 02:37:33;;;;;;;8.93;6.07;;;;;;;;;;5093696;28;20093;-76
2021/10/13 02:39:59;;;;;;;15.48;6.35;;;;;;;;;;5092125;28;20048;-76
2021/10/13 02:42:25;;;;;;;10.20;6.00;;;;;;;;;;5093676;28;20028;-77
2021/10/13 02:44:50;;;;;;;9.13;5.03;;;;;;;;;;5093980;28;20032;-77
2021/10/13 02:47:23;;;;;;;10.88;5.97;;;;;;;;;;5093595;28;20473;-76
2021/10/13 02:50:16;;;;;;;9.23;5.28;;;;;;;;;;5093857;28;20032;-78
2021/10/13 02:53:15;;;;;;;10.00;6.68;;;;;;;;;;5093688;28;20043;-77
2021/10/13 02:55:46;;;;;;;9.38;5.50;;;;;;;;;;5095191;28;20052;-78
2021/10/13 02:58:20;;;;;;;11.95;5.85;;;;;;;;;;5094245;28;20155;-77
2021/10/13 03:00:47;;;;;;;8.07;5.55;;;;;;;;;;5093322;28;20036;-76
2021/10/13 03:03:25;;;;;;;9.88;5.25;;;;;;;;;;5093729;28;20059;-76
2021/10/13 03:05:52;;;;;;;7.63;4.32;;;;;;;;;;5093649;28;20044;-76
2021/10/13 03:08:21;;;;;;;13.52;4.40;;;;;;;;;;5093340;28;20126;-76
2021/10/13 03:10:48;;;;;;;10.30;4.65;;;;;;;;;;5092614;28;20032;-76
2021/10/13 03:13:16;;;;;;;11.93;4.90;;;;;;;;;;5091440;28;20485;-76
2021/10/13 03:15:43;;;;;;;7.68;4.90;;;;;;;;;;5091890;28;20097;-76
2021/10/13 03:18:11;;;;;;;14.23;5.13;;;;;;;;;;5093414;28;20036;-76
2021/10/13 03:20:37;;;;;;;8.02;4.60;;;;;;;;;;5092941;28;20089;-76
2021/10/13 03:23:03;;;;;;;8.02;4.40;;;;;;;;;;5087181;28;20040;-76
2021/10/13 03:25:31;;;;;;;8.38;4.20;;;;;;;;;;5071330;28;20058;-76
2021/10/13 03:27:58;;;;;;;11.35;4.53;;;;;;;;;;5070499;28;20110;-76
2021/10/13 03:30:24;;;;;;;9.35;4.43;;;;;;;;;;5073908;28;20040;-76
2021/10/13 03:32:49;;;;;;;9.45;4.82;;;;;;;;;;5077385;28;20063;-76
2021/10/13 03:35:22;;;;;;;10.32;4.88;;;;;;;;;;5077182;28;20048;-76
2021/10/13 03:37:47;;;;;;;9.73;4.43;;;;;;;;;;5076871;28;20056;-76
2021/10/13 03:40:13;;;;;;;11.57;4.70;;;;;;;;;;5077602;28;20571;-76
2021/10/13 03:42:38;;;;;;;6.97;4.70;;;;;;;;;;5094576;28;20055;-76
2021/10/13 03:45:04;;;;;;;17.48;4.75;;;;;;;;;;5094640;28;20040;-76
2021/10/13 03:47:30;;;;;;;11.95;4.78;;;;;;;;;;5097328;28;20082;-76
2021/10/13 03:49:55;;;;;;;11.50;4.70;;;;;;;;;;5097217;28;20070;-76
2021/10/13 03:52:21;;;;;;;9.13;5.03;;;;;;;;;;5095716;28;20035;-76
2021/10/13 03:54:46;;;;;;;12.40;7.53;;;;;;;;;;5097010;28;20036;-77
2021/10/13 03:57:11;;;;;;;14.13;7.90;;;;;;;;;;5096856;28;20036;-77
2021/10/13 03:59:37;;;;;;;16.30;8.15;;;;;;;;;;5096764;28;20040;-76
2021/10/13 04:02:03;;;;;;;21.50;8.13;;;;;;;;;;5097004;28;20035;-76
2021/10/13 04:04:28;;;;;;;20.40;8.95;;;;;;;;;;5095033;28;20032;-75
2021/10/13 04:06:53;;;;;;;15.57;7.95;;;;;;;;;;5096539;28;20028;-76
2021/10/13 04:09:19;;;;;;;15.88;9.23;;;;;;;;;;5095342;28;20119;-76
2021/10/13 04:11:45;;;;;;;22.05;9.23;;;;;;;;;;5096740;28;20049;-76
2021/10/13 04:14:10;;;;;;;12.38;8.05;;;;;;;;;;5096313;28;20057;-76
2021/10/13 04:16:36;;;;;;;15.82;8.35;;;;;;;;;;5095618;28;20461;-76
2021/10/13 04:19:02;;;;;;;14.57;8.15;;;;;;;;;;5096640;28;20036;-76
2021/10/13 04:21:27;;;;;;;14.05;8.25;;;;;;;;;;5096612;28;20461;-76
2021/10/13 04:23:52;;;;;;;19.73;8.80;;;;;;;;;;5096095;28;20050;-76
2021/10/13 04:26:18;;;;;;;13.43;7.68;;;;;;;;;;5096341;28;20109;-76
2021/10/13 04:28:43;;;;;;;12.85;7.45;;;;;;;;;;5096587;28;20111;-76
2021/10/13 04:31:10;;;;;;;16.27;7.45;;;;;;;;;;5096506;28;20046;-76
2021/10/13 04:33:35;;;;;;;13.30;7.47;;;;;;;;;;5096584;28;20347;-76
2021/10/13 04:36:01;;;;;;;16.15;7.85;;;;;;;;;;5096259;28;20093;-77
2021/10/13 04:38:26;;;;;;;22.23;9.15;;;;;;;;;;5095341;28;20102;-76
2021/10/13 04:40:51;;;;;;;12.15;7.43;;;;;;;;;;5094147;28;20028;-76
2021/10/13 04:43:17;;;;;;;10.88;6.53;;;;;;;;;;5096350;28;20032;-76
2021/10/13 04:45:42;;;;;;;17.13;7.57;;;;;;;;;;5096152;28;20019;-76
2021/10/13 04:48:08;;;;;;;18.85;7.45;;;;;;;;;;5096093;28;20047;-76
2021/10/13 04:50:33;;;;;;;10.38;6.80;;;;;;;;;;5095982;28;20397;-76
2021/10/13 04:52:58;;;;;;;10.43;6.60;;;;;;;;;;5095978;28;20459;-76
2021/10/13 04:55:24;;;;;;;11.68;6.97;;;;;;;;;;5095719;28;20040;-76
2021/10/13 04:57:49;;;;;;;10.60;6.35;;;;;;;;;;5095631;28;20063;-76
2021/10/13 05:00:15;;;;;;;13.55;8.10;;;;;;;;;;5095938;28;20036;-76
2021/10/13 05:02:40;;;;;;;21.73;8.70;;;;;;;;;;5096047;28;20036;-76
2021/10/13 05:05:06;;;;;;;14.45;7.88;;;;;;;;;;5094634;28;20040;-76
2021/10/13 05:07:31;;;;;;;15.15;9.52;;;;;;;;;;5095731;28;20111;-76
2021/10/13 05:09:56;;;;;;;10.63;7.65;;;;;;;;;;5094578;28;20035;-76
2021/10/13 05:12:22;;;;;;;15.85;7.22;;;;;;;;;;5095857;28;20040;-76
2021/10/13 05:14:47;;;;;;;14.38;7.80;;;;;;;;;;5095769;28;20047;-76
2021/10/13 05:17:12;;;;;;;12.43;7.32;;;;;;;;;;5095387;28;20032;-76
2021/10/13 05:19:38;;;;;;;15.27;8.20;;;;;;;;;;5094169;28;20063;-76
2021/10/13 05:22:03;;;;;;;14.73;8.15;;;;;;;;;;5095478;28;20036;-76
2021/10/13 05:24:29;;;;;;;13.85;8.23;;;;;;;;;;5094972;28;20131;-76
2021/10/13 05:26:55;;;;;;;15.73;8.63;;;;;;;;;;5095188;28;20024;-76
2021/10/13 05:29:20;;;;;;;13.30;8.48;;;;;;;;;;5095090;28;20050;-77
2021/10/13 05:31:46;;;;;;;17.20;9.10;;;;;;;;;;5095399;28;20036;-76
2021/10/13 05:34:11;;;;;;;15.07;10.93;;;;;;;;;;5094938;28;20073;-76
2021/10/13 05:36:37;;;;;;;17.17;8.75;;;;;;;;;;5095076;28;20028;-76
2021/10/13 05:39:02;;;;;;;16.38;9.00;;;;;;;;;;5093556;28;20119;-76
2021/10/13 05:41:28;;;;;;;13.35;8.63;;;;;;;;;;5094981;28;20036;-76
2021/10/13 05:43:53;;;;;;;14.38;9.57;;;;;;;;;;5094631;28;20470;-75
2021/10/13 05:46:19;;;;;;;14.65;8.82;;;;;;;;;;5095097;28;20039;-76
2021/10/13 05:48:44;;;;;;;15.80;8.90;;;;;;;;;;5094552;28;20081;-76
2021/10/13 05:51:10;;;;;;;23.05;10.65;;;;;;;;;;5094104;28;20040;-75
2021/10/13 05:53:35;;;;;;;18.13;8.93;;;;;;;;;;5094045;28;20071;-75
2021/10/13 05:56:00;;;;;;;16.38;8.85;;;;;;;;;;5094603;28;20028;-75
2021/10/13 05:58:27;;;;;;;18.52;9.35;;;;;;;;;;5094564;28;20094;-75
2021/10/13 06:00:54;;;;;;;22.13;9.15;;;;;;;;;;5094695;28;20032;-75
2021/10/13 06:03:21;;;;;;;19.60;10.30;;;;;;;;;;5094801;28;20043;-75
2021/10/13 06:05:46;;;;;;;12.95;8.82;;;;;;;;;;5094536;28;20042;-75
2021/10/13 06:08:12;;;;;;;19.13;8.65;;;;;;;;;;5094503;28;20115;-75
2021/10/13 06:10:37;;;;;;;14.00;8.07;;;;;;;;;;5093802;28;20043;-75
2021/10/13 06:13:03;;;;;;;14.32;7.28;;;;;;;;;;5094268;28;20032;-75
2021/10/13 06:15:34;;;;;;;9.90;7.57;;;;;;;;;;5093375;28;20032;-77
2021/10/13 06:18:09;;;;;;;20.70;7.93;;;;;;;;;;5094251;28;20130;-75
2021/10/13 06:20:35;;;;;;;12.80;8.63;;;;;;;;;;5094248;28;20036;-77
2021/10/13 06:23:02;;;;;;;15.82;8.50;;;;;;;;;;5094553;28;20626;-76
2021/10/13 06:25:28;;;;;;;15.45;8.18;;;;;;;;;;5094713;28;20466;-76
2021/10/13 06:27:54;;;;;;;21.75;9.15;;;;;;;;;;5093508;28;20402;-75
2021/10/13 06:30:19;;;;;;;14.13;8.05;;;;;;;;;;5094161;28;20074;-75
2021/10/13 06:32:45;;;;;;;18.70;8.23;;;;;;;;;;5094105;28;20072;-75
2021/10/13 06:35:10;;;;;;;12.05;8.02;;;;;;;;;;5094121;28;20043;-76
2021/10/13 06:37:36;;;;;;;15.18;7.50;;;;;;;;;;5092575;28;20039;-77
2021/10/13 06:40:02;;;;;;;10.23;7.38;;;;;;;;;;5091592;28;20476;-74
2021/10/13 06:42:27;;;;;;;16.25;7.10;;;;;;;;;;5093884;28;20032;-75
2021/10/13 06:44:52;;;;;;;12.73;7.15;;;;;;;;;;5093713;28;20114;-75
2021/10/13 06:47:18;;;;;;;15.65;7.43;;;;;;;;;;5093681;28;20024;-75
2021/10/13 06:49:43;;;;;;;14.02;7.32;;;;;;;;;;5093664;28;20405;-75
2021/10/13 06:52:09;;;;;;;11.80;7.70;;;;;;;;;;5093767;28;20089;-75
2021/10/13 06:54:34;;;;;;;10.70;7.28;;;;;;;;;;5093780;28;20024;-78
2021/10/13 06:56:59;;;;;;;14.98;7.57;;;;;;;;;;5093161;28;20061;-78
2021/10/13 06:59:25;;;;;;;17.58;7.72;;;;;;;;;;5093813;28;20043;-78
2021/10/13 07:01:50;;;;;;;16.42;8.02;;;;;;;;;;5092470;28;20040;-77
2021/10/13 07:04:16;;;;;;;12.48;7.75;;;;;;;;;;5093682;28;20047;-77
2021/10/13 07:06:41;;;;;;;16.67;9.00;;;;;;;;;;5093284;28;20085;-76
2021/10/13 07:09:07;;;;;;;12.02;8.05;;;;;;;;;;5092268;28;20516;-76
2021/10/13 07:11:33;;;;;;;15.20;7.57;;;;;;;;;;5093581;28;20031;-72
2021/10/13 07:13:59;;;;;;;13.48;7.75;;;;;;;;;;5093557;28;20036;-76
2021/10/13 07:16:24;;;;;;;15.95;7.50;;;;;;;;;;5092180;28;20036;-75
2021/10/13 07:18:49;;;;;;;14.00;7.28;;;;;;;;;;5092592;28;20381;-75
2021/10/13 07:21:16;;;;;;;11.73;8.00;;;;;;;;;;5092419;28;20078;-75
2021/10/13 07:23:41;;;;;;;12.65;7.55;;;;;;;;;;5092571;28;20036;-75
2021/10/13 07:26:07;;;;;;;11.52;7.30;;;;;;;;;;5093483;28;20162;-75
2021/10/13 07:28:38;;;;;;;14.05;7.55;;;;;;;;;;5093399;28;20447;-75
2021/10/13 07:31:04;;;;;;;11.55;7.70;;;;;;;;;;5093205;28;20031;-75
2021/10/13 07:33:29;;;;;;;12.93;7.45;;;;;;;;;;5093391;28;20036;-75
2021/10/13 07:35:54;;;;;;;9.73;7.55;;;;;;;;;;5092929;28;20043;-75
2021/10/13 07:38:20;;;;;;;13.57;8.20;;;;;;;;;;5090591;28;20052;-73
2021/10/13 07:40:47;;;;;;;14.40;7.88;;;;;;;;;;5092709;28;20125;-71
2021/10/13 07:43:14;;;;;;;10.73;7.07;;;;;;;;;;5093092;28;20115;-72
2021/10/13 07:45:40;;;;;;;14.50;7.15;;;;;;;;;;5093287;28;20629;-72
2021/10/13 07:48:06;;;;;;;17.23;8.27;;;;;;;;;;5093226;28;20471;-72
2021/10/13 07:50:31;;;;;;;10.02;6.97;;;;;;;;;;5093031;28;20070;-72
2021/10/13 07:52:57;;;;;;;13.80;7.75;;;;;;;;;;5093159;28;20068;-72
2021/10/13 07:55:22;;;;;;;12.68;7.60;;;;;;;;;;5092471;28;20043;-72
2021/10/13 07:57:47;;;;;;;12.48;7.60;;;;;;;;;;5092126;28;20043;-72
2021/10/13 08:00:16;;;;;;;14.63;7.85;;;;;;;;;;5092893;28;20089;-72
2021/10/13 08:02:46;;;;;;;14.32;8.25;;;;;;;;;;5093008;28;20032;-72
2021/10/13 08:05:12;;;;;;;12.15;7.68;;;;;;;;;;5093131;28;20040;-72
2021/10/13 08:07:37;;;;;;;10.50;7.38;;;;;;;;;;5092982;28;20161;-72
2021/10/13 08:10:03;;;;;;;12.07;6.80;;;;;;;;;;5092609;28;20028;-72
2021/10/13 08:12:29;;;;;;;11.25;7.45;;;;;;;;;;5091523;28;20490;-71
2021/10/13 08:14:54;;;;;;;14.77;7.88;;;;;;;;;;5092991;28;20142;-78
2021/10/13 08:17:20;;;;;;;10.65;7.00;;;;;;;;;;5096552;28;20101;-75
2021/10/13 08:19:45;;;;;;;12.60;7.10;;;;;;;;;;5096259;28;20036;-76
2021/10/13 08:22:10;;;;;;;10.55;7.30;;;;;;;;;;5095984;28;20035;-76
2021/10/13 08:24:36;;;;;;;13.15;7.38;;;;;;;;;;5093804;28;20024;-72
2021/10/13 08:27:02;;;;;;;11.95;8.15;;;;;;;;;;5094735;28;20477;-73
2021/10/13 08:29:28;;;;;;;14.05;7.22;;;;;;;;;;5096409;28;20036;-73
2021/10/13 08:31:54;;;;;;;12.10;7.68;;;;;;;;;;5095920;28;20040;-73
2021/10/13 08:34:19;;;;;;;13.13;7.20;;;;;;;;;;5096088;28;20067;-75
2021/10/13 08:36:45;;;;;;;13.68;7.97;;;;;;;;;;5096146;28;20040;-75
2021/10/13 08:39:10;;;;;;;17.52;7.90;;;;;;;;;;5093403;28;20040;-75
2021/10/13 08:41:36;;;;;;;10.50;7.57;;;;;;;;;;5096256;28;20119;-75
2021/10/13 08:44:02;;;;;;;16.90;8.48;;;;;;;;;;5096108;28;20039;-74
2021/10/13 08:46:28;;;;;;;12.57;7.90;;;;;;;;;;5094388;28;20043;-74
2021/10/13 08:48:53;;;;;;;10.93;6.93;;;;;;;;;;5095720;28;20032;-74
2021/10/13 08:51:19;;;;;;;11.35;7.07;;;;;;;;;;5095180;28;20028;-74
2021/10/13 08:53:44;;;;;;;12.10;6.85;;;;;;;;;;5094371;28;20369;-76
2021/10/13 08:56:10;;;;;;;14.95;7.55;;;;;;;;;;5095517;28;20088;-75
2021/10/13 08:58:42;;;;;;;13.05;6.15;;;;;;;;;;5094102;28;20136;-74
2021/10/13 09:01:10;;;;;;;11.60;7.00;;;;;;;;;;5091797;28;20118;-74
2021/10/13 09:03:38;;;;;;;9.85;7.15;;;;;;;;;;5095659;28;20529;-74
2021/10/13 09:06:22;;;;;;;12.10;7.05;;;;;;;;;;5082595;28;20094;-73
2021/10/13 09:09:04;;;;;;;10.07;6.93;;;;;;;;;;5074756;28;20028;-74
2021/10/13 09:11:56;;;;;;;10.70;6.68;;;;;;;;;;5093133;28;20417;-74
2021/10/13 09:14:26;;;;;;;11.52;6.80;;;;;;;;;;5088752;28;20135;-73
2021/10/13 09:16:55;;;;;;;8.77;6.10;;;;;;;;;;5065204;28;20020;-74
2021/10/13 09:19:36;;;;;;;9.98;6.80;;;;;;;;;;5064110;28;20040;-74
2021/10/13 09:22:07;;;;;;;12.27;6.90;;;;;;;;;;5064365;28;21186;-74
2021/10/13 09:24:39;;;;;;;9.93;6.32;;;;;;;;;;5081410;28;20069;-74
2021/10/13 09:27:21;;;;;;;10.35;6.20;;;;;;;;;;5063286;28;20032;-71
2021/10/13 09:29:47;;;;;;;12.50;6.80;;;;;;;;;;5063496;28;20035;-70
2021/10/13 09:32:12;;;;;;;12.13;6.32;;;;;;;;;;5062959;28;20080;-72
2021/10/13 09:34:46;;;;;;;11.15;6.82;;;;;;;;;;5062381;28;20067;-71
2021/10/13 09:37:11;;;;;;;14.52;6.50;;;;;;;;;;5061416;28;20024;-71
2021/10/13 09:39:37;;;;;;;12.98;6.63;;;;;;;;;;5062698;28;20606;-72
2021/10/13 09:42:08;;;;;;;13.95;6.30;;;;;;;;;;5063054;28;20036;-75
2021/10/13 09:44:42;;;;;;;10.13;6.60;;;;;;;;;;5063359;28;20584;-72
2021/10/13 09:47:11;;;;;;;12.70;6.15;;;;;;;;;;5067240;28;20774;-73
2021/10/13 09:49:42;;;;;;;14.73;7.20;;;;;;;;;;5063373;28;20533;-73
2021/10/13 09:52:08;;;;;;;10.43;6.38;;;;;;;;;;5063050;28;20653;-72
2021/10/13 09:54:36;;;;;;;12.90;6.43;;;;;;;;;;5062311;28;20048;-72
2021/10/13 09:57:15;;;;;;;15.45;7.07;;;;;;;;;;5063515;28;20051;-71
2021/10/13 09:59:54;;;;;;;9.18;5.63;;;;;;;;;;5062868;28;20031;-78
2021/10/13 10:02:21;;;;;;;10.68;6.43;;;;;;;;;;5063539;28;20202;-75
2021/10/13 10:04:46;;;;;;;17.65;7.10;;;;;;;;;;5061371;28;20726;-73
2021/10/13 10:07:12;;;;;;;14.13;5.72;;;;;;;;;;5062908;28;20057;-74
2021/10/13 10:09:37;;;;;;;17.98;5.47;;;;;;;;;;5062194;28;20020;-74
2021/10/13 10:12:07;;;;;;;9.93;5.65;;;;;;;;;;5063455;28;20021;-74
2021/10/13 10:14:33;;;;;;;13.85;5.80;;;;;;;;;;5062367;28;20738;-74
2021/10/13 10:17:00;;;;;;;10.48;5.05;;;;;;;;;;5060864;28;20023;-74
2021/10/13 10:19:28;;;;;;;8.27;4.95;;;;;;;;;;5062844;28;20127;-76
2021/10/13 10:22:13;;;;;;;11.32;5.10;;;;;;;;;;5063039;28;20047;-75
2021/10/13 10:24:45;;;;;;;13.13;5.25;;;;;;;;;;5061436;28;20039;-73
2021/10/13 10:27:32;;;;;;;8.73;4.80;;;;;;;;;;5063721;28;20047;-75
2021/10/13 10:30:14;;;;;;;11.40;4.40;;;;;;;;;;5063223;28;20070;-75
2021/10/13 10:32:45;;;;;;;10.63;4.57;;;;;;;;;;5072042;28;20043;-74
2021/10/13 10:35:13;;;;;;;11.52;4.57;;;;;;;;;;5093951;28;20160;-73
2021/10/13 10:37:46;;;;;;;17.15;6.25;;;;;;;;;;5093786;28;20044;-73
2021/10/13 10:40:22;;;;;;;39.30;25.23;;;;;;;;;;5092697;28;20044;-73
2021/10/13 10:43:15;;;;;;;15.35;7.63;;;;;;;;;;5093784;28;20051;-73
2021/10/13 10:45:48;;;;;;;12.80;4.72;;;;;;;;;;5090373;28;20100;-74
2021/10/13 10:48:15;;;;;;;6.60;3.85;;;;;;;;;;5093889;28;20038;-73
2021/10/13 10:50:43;;;;;;;9.63;5.00;;;;;;;;;;5093410;28;20054;-73
2021/10/13 10:53:13;;;;;;;15.77;5.88;;;;;;;;;;5093835;28;20036;-73
2021/10/13 10:55:41;;;;;;;13.48;4.55;;;;;;;;;;5093095;28;20043;-72
2021/10/13 10:58:28;;;;;;;10.75;4.30;;;;;;;;;;5092781;28;20035;-73
2021/10/13 11:01:02;;;;;;;8.80;4.28;;;;;;;;;;5093277;28;20089;-73
2021/10/13 11:03:36;;;;;;;10.43;5.60;;;;;;;;;;5093026;28;20034;-73
2021/10/13 11:06:12;;;;;;;10.93;5.55;;;;;;;;;;5092774;28;20032;-73
2021/10/13 11:09:04;;;;;;;16.08;5.18;;;;;;;;;;5092385;28;20043;-73
2021/10/13 11:11:43;;;;;;;10.70;3.80;;;;;;;;;;5092161;28;20039;-74
2021/10/13 11:14:14;;;;;;;11.48;3.35;;;;;;;;;;5092768;28;20081;-73
2021/10/13 11:16:47;;;;;;;11.38;3.45;;;;;;;;;;5093186;28;20053;-73
2021/10/13 11:19:21;;;;;;;10.60;3.20;;;;;;;;;;5093277;28;20036;-73
2021/10/13 11:21:57;;;;;;;7.15;3.88;;;;;;;;;;5092963;28;20059;-74
2021/10/13 11:24:23;;;;;;;10.73;3.38;;;;;;;;;;5091955;28;20032;-73
2021/10/13 11:26:49;;;;;;;6.00;3.10;;;;;;;;;;5092803;28;20115;-73
2021/10/13 11:29:16;;;;;;;9.98;3.38;;;;;;;;;;5092528;28;20106;-73
2021/10/13 11:31:42;;;;;;;5.88;2.95;;;;;;;;;;5091580;28;20040;-73
2021/10/13 11:34:08;;;;;;;13.88;3.83;;;;;;;;;;5093041;28;20039;-73
2021/10/13 11:36:53;;;;;;;15.40;3.22;;;;;;;;;;5093302;28;20040;-74
2021/10/13 11:39:26;;;;;;;8.45;3.10;;;;;;;;;;5091212;28;20048;-73
2021/10/13 11:41:52;;;;;;;8.50;2.80;;;;;;;;;;5092354;28;20024;-73
2021/10/13 11:44:20;;;;;;;11.93;2.63;;;;;;;;;;5092520;28;20120;-73
2021/10/13 11:47:15;;;;;;;12.80;3.17;;;;;;;;;;5092551;28;20036;-73
2021/10/13 11:50:00;;;;;;;8.07;2.85;;;;;;;;;;5087965;28;20056;-73
2021/10/13 11:52:26;;;;;;;9.85;3.20;;;;;;;;;;5097021;28;20035;-73
2021/10/13 11:55:15;;;;;;;11.25;3.25;;;;;;;;;;5096581;28;20115;-73
2021/10/13 11:57:51;;;;;;;9.65;3.38;;;;;;;;;;5094803;28;20042;-73
2021/10/13 12:00:18;;;;;;;11.88;3.08;;;;;;;;;;5096457;28;20111;-74
2021/10/13 12:03:05;;;;;;;16.08;3.28;;;;;;;;;;5096416;28;20077;-73
2021/10/13 12:05:41;;;;;;;12.77;2.47;;;;;;;;;;5096621;28;20374;-74
2021/10/13 12:08:12;;;;;;;8.93;2.88;;;;;;;;;;5096620;28;20074;-74
2021/10/13 12:10:45;;;;;;;10.77;2.80;;;;;;;;;;5094752;28;20081;-73
2021/10/13 12:13:14;;;;;;;8.32;2.38;;;;;;;;;;5096438;28;20036;-73
2021/10/13 12:15:41;;;;;;;15.30;3.17;;;;;;;;;;5095937;28;20040;-73
2021/10/13 12:18:12;;;;;;;10.80;2.85;;;;;;;;;;5096375;28;20094;-73
2021/10/13 12:20:38;;;;;;;8.32;2.90;;;;;;;;;;5096240;28;20456;-73
2021/10/13 12:23:16;;;;;;;8.77;2.35;;;;;;;;;;5096352;28;20119;-73
2021/10/13 12:25:42;;;;;;;6.22;2.97;;;;;;;;;;5095727;28;20119;-73
2021/10/13 12:28:19;;;;;;;9.40;3.33;;;;;;;;;;5096269;28;20111;-73
2021/10/13 12:30:47;;;;;;;8.10;3.00;;;;;;;;;;5096444;28;20046;-73
2021/10/13 12:33:15;;;;;;;10.25;2.90;;;;;;;;;;5096331;28;20036;-73
2021/10/13 12:35:42;;;;;;;8.02;2.78;;;;;;;;;;5095986;28;20111;-74
2021/10/13 12:38:15;;;;;;;9.45;3.20;;;;;;;;;;5094710;28;20106;-73
2021/10/13 12:40:58;;;;;;;19.20;3.67;;;;;;;;;;5094781;28;20067;-73
2021/10/13 12:43:23;;;;;;;9.10;2.75;;;;;;;;;;5095991;28;20032;-73
2021/10/13 12:45:49;;;;;;;11.93;3.10;;;;;;;;;;5095897;28;20085;-74
2021/10/13 12:48:17;;;;;;;11.85;3.60;;;;;;;;;;5095332;28;20077;-73
2021/10/13 12:51:08;;;;;;;6.90;2.40;;;;;;;;;;5095615;28;20032;-73
2021/10/13 12:53:36;;;;;;;12.23;2.85;;;;;;;;;;5095796;28;20036;-73
2021/10/13 12:56:01;;;;;;;9.68;3.03;;;;;;;;;;5095571;28;20036;-73
2021/10/13 12:58:27;;;;;;;9.20;2.90;;;;;;;;;;5096053;28;20047;-75
2021/10/13 13:00:53;;;;;;;6.70;2.95;;;;;;;;;;5084106;28;20076;-75
2021/10/13 13:03:19;;;;;;;13.10;2.80;;;;;;;;;;5093702;28;20032;-75
2021/10/13 13:05:44;;;;;;;10.40;2.83;;;;;;;;;;5095879;28;20058;-75
2021/10/13 13:08:09;;;;;;;7.95;2.78;;;;;;;;;;5095577;28;20028;-75
2021/10/13 13:10:35;;;;;;;9.40;3.28;;;;;;;;;;5094454;28;20355;-75
2021/10/13 13:13:02;;;;;;;9.05;2.55;;;;;;;;;;5095288;28;20493;-75
2021/10/13 13:15:28;;;;;;;9.65;2.88;;;;;;;;;;5094816;28;20505;-75
2021/10/13 13:17:54;;;;;;;9.68;3.08;;;;;;;;;;5094971;28;20067;-75
2021/10/13 13:20:20;;;;;;;11.55;3.00;;;;;;;;;;5095247;28;20082;-75
2021/10/13 13:22:45;;;;;;;8.35;3.05;;;;;;;;;;5095213;28;20032;-75
2021/10/13 13:25:11;;;;;;;12.85;3.25;;;;;;;;;;5093459;28;20040;-75
2021/10/13 13:27:36;;;;;;;8.88;2.92;;;;;;;;;;5094816;28;20035;-75
2021/10/13 13:30:03;;;;;;;10.30;2.90;;;;;;;;;;5095250;28;20036;-75
2021/10/13 13:32:29;;;;;;;7.75;2.92;;;;;;;;;;5093728;28;20043;-75
2021/10/13 13:34:54;;;;;;;8.73;2.95;;;;;;;;;;5095310;28;20028;-75
2021/10/13 13:37:19;;;;;;;9.13;3.40;;;;;;;;;;5095253;28;20079;-75
2021/10/13 13:39:45;;;;;;;6.68;3.13;;;;;;;;;;5093785;28;20363;-75
2021/10/13 13:42:10;;;;;;;5.43;2.70;;;;;;;;;;5095123;28;20123;-75
2021/10/13 13:44:35;;;;;;;13.52;2.90;;;;;;;;;;5095096;28;20043;-75
2021/10/13 13:47:01;;;;;;;9.82;3.30;;;;;;;;;;5094084;28;20067;-75
2021/10/13 13:49:26;;;;;;;8.48;2.78;;;;;;;;;;5094898;28;20028;-75
2021/10/13 13:51:51;;;;;;;7.32;3.38;;;;;;;;;;5094861;28;20036;-75
2021/10/13 13:54:17;;;;;;;7.32;3.20;;;;;;;;;;5094521;28;20474;-76
2021/10/13 13:56:42;;;;;;;10.30;3.00;;;;;;;;;;5094024;28;20043;-76
2021/10/13 13:59:08;;;;;;;9.05;2.95;;;;;;;;;;5093421;28;20063;-76
2021/10/13 14:01:33;;;;;;;11.02;3.05;;;;;;;;;;5094892;28;20085;-75
2021/10/13 14:03:58;;;;;;;7.68;2.65;;;;;;;;;;5094856;28;20027;-76
2021/10/13 14:06:24;;;;;;;7.22;2.47;;;;;;;;;;5094605;28;20094;-75
2021/10/13 14:08:49;;;;;;;6.95;2.13;;;;;;;;;;5094610;28;20030;-75
2021/10/13 14:11:15;;;;;;;9.52;2.10;;;;;;;;;;5094293;28;20474;-76
2021/10/13 14:13:40;;;;;;;6.70;2.40;;;;;;;;;;5093875;28;20393;-76
2021/10/13 14:16:06;;;;;;;7.78;3.17;;;;;;;;;;5094624;28;20055;-75
2021/10/13 14:18:31;;;;;;;5.75;3.20;;;;;;;;;;5093321;28;20059;-75
2021/10/13 14:20:57;;;;;;;7.32;2.40;;;;;;;;;;5093876;28;20175;-75
2021/10/13 14:23:22;;;;;;;7.72;2.08;;;;;;;;;;5092683;28;20023;-76
2021/10/13 14:25:48;;;;;;;5.10;1.85;;;;;;;;;;5093202;28;20058;-75
2021/10/13 14:28:13;;;;;;;7.35;2.40;;;;;;;;;;5093976;28;20067;-75
2021/10/13 14:30:39;;;;;;;8.20;2.08;;;;;;;;;;5093588;28;20039;-75
2021/10/13 14:33:04;;;;;;;6.75;2.10;;;;;;;;;;5093802;28;20036;-75
2021/10/13 14:35:30;;;;;;;7.75;2.47;;;;;;;;;;5092908;28;20047;-75
2021/10/13 14:37:55;;;;;;;5.72;2.22;;;;;;;;;;5093510;28;20036;-75
2021/10/13 14:40:21;;;;;;;9.77;2.13;;;;;;;;;;5074325;28;20048;-75
2021/10/13 14:42:46;;;;;;;9.50;2.15;;;;;;;;;;5091870;28;20048;-75